Time;durP1;ratioP1;P1;durP2;ratioP2;P2;SDS_P1;SDS_P2;PMS_P1;PMS_P2;Temp;Humidity;BMP_temperature;BMP_pressure;BME280_temperature;BME280_humidity;BME280_pressure;Samples;Min_cycle;Max_cycle;Signal;HPM_P1;HPM_P2
2021/10/28 00:12:23;;;;;;;37.63;23.63;;;10.20;99.90;;;;;;4963919;28;20050;-80
2021/10/28 00:14:55;;;;;;;42.70;23.75;;;10.20;99.90;;;;;;4968116;28;20466;-80
2021/10/28 00:20:23;;;;;;;36.60;22.73;;;10.20;99.90;;;;;;4887076;29;20131;-81
2021/10/28 00:22:50;;;;;;;43.95;23.88;;;10.20;99.90;;;;;;4889989;29;20048;-80
2021/10/28 00:25:15;;;;;;;36.78;23.27;;;10.20;99.90;;;;;;4908211;29;20730;-80
2021/10/28 00:27:41;;;;;;;40.65;25.17;;;10.10;99.90;;;;;;4897606;29;20126;-80
2021/10/28 00:30:07;;;;;;;37.13;23.75;;;10.40;99.90;;;;;;4879010;29;20240;-81
2021/10/28 00:32:33;;;;;;;38.92;23.10;;;10.10;99.90;;;;;;4890307;29;20036;-80
2021/10/28 00:34:58;;;;;;;34.70;23.98;;;10.10;99.90;;;;;;4892405;29;20433;-81
2021/10/28 00:37:24;;;;;;;40.20;23.83;;;10.00;99.90;;;;;;4893351;29;20056;-80
2021/10/28 00:39:50;;;;;;;39.55;22.92;;;10.00;99.90;;;;;;4891471;29;20067;-80
2021/10/28 00:42:18;;;;;;;42.53;22.80;;;10.00;99.90;;;;;;4874679;29;20060;-81
2021/10/28 00:44:47;;;;;;;38.15;22.58;;;10.00;99.90;;;;;;4893836;29;20460;-80
2021/10/28 00:47:12;;;;;;;37.30;22.20;;;10.00;99.90;;;;;;4909439;29;20059;-80
2021/10/28 00:49:38;;;;;;;41.85;24.60;;;10.00;99.90;;;;;;4891766;29;20048;-80
2021/10/28 00:52:04;;;;;;;42.22;22.98;;;9.90;99.90;;;;;;4875042;29;20067;-80
2021/10/28 00:54:30;;;;;;;38.25;21.92;;;9.90;99.90;;;;;;4919935;28;20102;-80
2021/10/28 00:56:56;;;;;;;39.28;22.30;;;9.90;99.90;;;;;;4965461;28;20051;-81
2021/10/28 00:59:22;;;;;;;37.10;21.75;;;9.80;99.90;;;;;;4968726;28;20463;-80
2021/10/28 01:01:48;;;;;;;32.42;22.10;;;9.80;99.90;;;;;;4967277;28;20089;-80
2021/10/28 01:04:13;;;;;;;34.25;21.95;;;9.80;99.90;;;;;;4963100;28;20085;-80
2021/10/28 01:06:40;;;;;;;41.70;22.83;;;9.60;99.90;;;;;;4963042;28;20100;-80
2021/10/28 01:09:07;;;;;;;29.92;20.85;;;9.70;99.90;;;;;;4946212;28;20066;-81
2021/10/28 01:11:33;;;;;;;32.90;20.73;;;9.60;99.90;;;;;;4963232;28;20101;-81
2021/10/28 01:13:59;;;;;;;44.83;22.65;;;9.70;99.90;;;;;;4960683;28;20034;-81
2021/10/28 01:16:33;;;;;;;32.42;20.70;;;9.60;99.90;;;;;;4944337;28;20309;-81
2021/10/28 01:18:58;;;;;;;32.65;21.60;;;9.60;99.90;;;;;;4954691;28;20161;-81
2021/10/28 01:21:24;;;;;;;35.38;21.35;;;9.50;99.90;;;;;;4960207;28;21062;-80
2021/10/28 01:23:50;;;;;;;36.17;20.80;;;9.60;99.90;;;;;;4946465;28;20026;-80
2021/10/28 01:26:18;;;;;;;36.90;21.38;;;9.60;99.90;;;;;;4964132;28;20465;-80
2021/10/28 01:28:53;;;;;;;34.63;21.25;;;9.50;99.90;;;;;;4961956;28;20057;-80
2021/10/28 01:31:22;;;;;;;36.13;22.17;;;9.50;99.90;;;;;;4961754;28;20038;-80
2021/10/28 01:33:49;;;;;;;37.60;22.10;;;9.50;99.90;;;;;;4965167;28;20133;-80
2021/10/28 01:36:17;;;;;;;42.47;22.75;;;9.50;99.90;;;;;;4962373;28;20050;-80
2021/10/28 01:38:43;;;;;;;37.28;23.33;;;9.50;99.90;;;;;;4962837;28;20390;-81
2021/10/28 01:41:10;;;;;;;38.38;22.75;;;9.40;99.90;;;;;;4962402;28;20030;-81
2021/10/28 01:43:36;;;;;;;37.35;22.50;;;9.40;99.90;;;;;;4977620;28;20054;-80
2021/10/28 01:46:03;;;;;;;36.63;22.58;;;9.40;99.90;;;;;;4946154;28;20442;-81
2021/10/28 01:48:29;;;;;;;49.00;23.80;;;9.40;99.90;;;;;;4964867;28;20066;-80
2021/10/28 01:50:55;;;;;;;42.00;22.55;;;9.40;99.90;;;;;;4960058;28;20046;-81
2021/10/28 01:53:21;;;;;;;35.17;21.15;;;9.40;99.90;;;;;;4948184;28;20094;-80
2021/10/28 01:55:47;;;;;;;37.58;22.67;;;9.40;99.90;;;;;;4962305;28;20346;-80
2021/10/28 01:58:14;;;;;;;34.88;21.80;;;9.40;99.90;;;;;;4967117;28;20438;-81
2021/10/28 02:00:42;;;;;;;36.05;22.17;;;9.40;99.90;;;;;;4962876;28;20038;-81
2021/10/28 02:03:07;;;;;;;41.92;22.83;;;9.40;99.90;;;;;;4962476;28;20046;-81
2021/10/28 02:05:34;;;;;;;41.65;21.92;;;9.30;99.90;;;;;;4958187;28;20053;-80
2021/10/28 02:07:59;;;;;;;43.75;24.23;;;9.30;99.90;;;;;;4953334;28;20062;-81
2021/10/28 02:10:25;;;;;;;38.60;22.58;;;9.40;99.90;;;;;;4930054;28;20475;-81
2021/10/28 02:12:56;;;;;;;37.55;21.98;;;9.30;99.90;;;;;;4944656;28;20642;-80
2021/10/28 02:15:25;;;;;;;53.20;24.65;;;9.30;99.90;;;;;;4944783;28;20094;-80
2021/10/28 02:17:51;;;;;;;41.97;23.70;;;9.30;99.90;;;;;;4950220;28;20034;-81
2021/10/28 02:20:18;;;;;;;42.22;23.30;;;9.50;99.90;;;;;;4946374;28;20471;-81
2021/10/28 02:22:59;;;;;;;44.03;24.25;;;9.30;99.90;;;;;;4945249;28;20483;-80
2021/10/28 02:26:15;;;;;;;;;;;;;;;;;;;;;
2021/10/28 02:29:42;;;;;;;39.17;21.45;;;9.20;99.90;;;;;;4874791;29;20556;-81
2021/10/28 02:32:48;;;;;;;;;;;;;;;;;;;;;
2021/10/28 02:36:13;;;;;;;44.50;22.98;;;9.30;99.90;;;;;;4853129;29;20122;-81
2021/10/28 02:38:48;;;;;;;45.72;23.33;;;9.20;99.90;;;;;;4847288;29;20193;-80
2021/10/28 02:41:50;;;;;;;43.10;23.65;;;9.70;99.90;;;;;;4835394;29;20674;-80
2021/10/28 02:48:08;;;;;;;46.83;24.75;;;9.20;99.90;;;;;;4798137;29;20355;-80
2021/10/28 03:01:42;;;;;;;37.92;22.45;;;9.20;99.90;;;;;;4806029;29;20050;-80
2021/10/28 03:04:16;;;;;;;39.58;21.92;;;9.20;99.90;;;;;;4787836;29;20393;-80
2021/10/28 03:07:08;;;;;;;48.38;23.95;;;9.20;99.90;;;;;;4781966;29;20112;-80
2021/10/28 03:09:52;;;;;;;42.63;24.42;;;9.50;99.90;;;;;;4784319;29;20055;-80
2021/10/28 03:12:21;;;;;;;41.72;23.23;;;9.60;99.90;;;;;;4789580;29;20095;-81
2021/10/28 03:14:53;;;;;;;40.08;22.77;;;9.20;99.90;;;;;;4829000;29;20049;-80
2021/10/28 03:26:30;;;;;;;38.88;22.10;;;9.20;99.90;;;;;;4896774;29;20149;-80
2021/10/28 03:29:30;;;;;;;39.03;22.83;;;9.90;99.90;;;;;;4895524;29;20048;-81
2021/10/28 03:32:28;;;;;;;35.38;21.00;;;9.20;99.90;;;;;;4881718;29;20397;-80
2021/10/28 03:35:00;;;;;;;40.97;21.27;;;9.50;99.90;;;;;;4880730;29;20059;-81
2021/10/28 03:37:29;;;;;;;38.60;21.17;;;9.20;99.90;;;;;;4934742;28;20713;-81
2021/10/28 03:58:59;;;;;;;40.10;21.98;;;9.10;99.90;;;;;;4966031;28;20035;-80
2021/10/28 04:04:36;;;;;;;31.95;20.92;;;9.50;99.90;;;;;;4961881;28;20042;-81
2021/10/28 04:29:16;;;;;;;36.55;20.80;;;9.10;99.90;;;;;;4987083;28;20049;-80
2021/10/28 04:32:13;;;;;;;39.47;19.92;;;9.10;99.90;;;;;;4985433;28;20041;-80
2021/10/28 04:34:55;;;;;;;35.30;21.38;;;9.10;99.90;;;;;;4968890;28;20413;-80
2021/10/28 04:37:30;;;;;;;35.90;19.77;;;8.90;99.90;;;;;;4967814;28;20061;-80
2021/10/28 04:40:13;;;;;;;35.20;19.67;;;9.00;99.90;;;;;;4965093;28;20077;-80
2021/10/28 04:42:54;;;;;;;33.65;19.73;;;8.80;99.90;;;;;;4983632;28;20038;-80
2021/10/28 04:45:41;;;;;;;36.45;19.35;;;9.00;99.90;;;;;;4985370;28;20088;-80
2021/10/28 04:48:16;;;;;;;37.72;20.35;;;9.00;99.90;;;;;;4954817;28;20684;-83
2021/10/28 04:50:42;;;;;;;36.97;20.27;;;9.50;99.90;;;;;;4984221;28;20129;-82
2021/10/28 04:53:11;;;;;;;41.03;20.08;;;9.00;99.90;;;;;;4968701;28;20434;-80
2021/10/28 04:55:37;;;;;;;33.97;19.02;;;9.10;99.90;;;;;;4966922;28;20050;-80
2021/10/28 04:58:04;;;;;;;32.58;19.27;;;9.20;99.90;;;;;;4972816;28;20045;-81
2021/10/28 05:00:30;;;;;;;34.67;19.35;;;9.00;99.90;;;;;;4959294;28;20041;-81
2021/10/28 05:02:56;;;;;;;30.67;18.80;;;9.00;99.90;;;;;;4976377;28;20136;-81
2021/10/28 05:05:22;;;;;;;32.97;19.27;;;9.00;99.90;;;;;;4961937;28;20077;-80
2021/10/28 05:07:48;;;;;;;32.67;18.52;;;8.90;99.90;;;;;;4984559;28;20870;-81
2021/10/28 05:10:14;;;;;;;27.95;17.80;;;8.90;99.90;;;;;;4975479;28;20059;-80
2021/10/28 05:12:41;;;;;;;34.28;19.23;;;8.90;99.90;;;;;;4987602;28;20031;-81
2021/10/28 05:15:07;;;;;;;32.65;18.63;;;9.00;99.90;;;;;;4969594;28;20418;-81
2021/10/28 05:17:33;;;;;;;29.15;17.48;;;8.90;99.90;;;;;;4967013;28;20042;-81
2021/10/28 05:19:58;;;;;;;30.45;18.58;;;9.20;99.90;;;;;;4971322;28;20042;-80
2021/10/28 05:22:24;;;;;;;28.70;18.35;;;8.90;99.90;;;;;;4971371;28;20045;-80
2021/10/28 05:24:50;;;;;;;30.90;18.00;;;8.80;99.90;;;;;;4979045;28;20046;-81
2021/10/28 05:27:16;;;;;;;32.83;18.88;;;8.80;99.90;;;;;;4974010;28;20481;-82
2021/10/28 05:29:42;;;;;;;35.17;17.88;;;8.80;99.90;;;;;;4955312;28;20133;-81
2021/10/28 05:32:07;;;;;;;25.73;17.15;;;8.90;99.90;;;;;;4967987;28;20128;-78
2021/10/28 05:34:33;;;;;;;29.85;18.23;;;8.80;99.90;;;;;;4990659;28;20109;-80
2021/10/28 05:37:02;;;;;;;30.08;18.73;;;8.80;99.90;;;;;;4974421;28;20116;-81
2021/10/28 05:39:30;;;;;;;31.58;16.85;;;8.80;99.90;;;;;;4974189;28;20042;-81
2021/10/28 05:41:56;;;;;;;34.22;17.02;;;8.80;99.90;;;;;;4973789;28;20040;-82
2021/10/28 05:44:38;;;;;;;29.67;16.33;;;8.80;99.90;;;;;;4957078;28;20074;-83
2021/10/28 05:47:22;;;;;;;26.60;16.85;;;8.80;99.90;;;;;;4973161;28;20047;-83
2021/10/28 05:49:48;;;;;;;30.20;17.13;;;8.70;99.90;;;;;;4969383;28;20065;-78
2021/10/28 05:52:15;;;;;;;28.30;16.77;;;8.60;99.90;;;;;;4967460;28;20050;-79
2021/10/28 05:54:40;;;;;;;26.15;17.30;;;8.70;99.90;;;;;;4967105;28;20050;-81
2021/10/28 05:57:06;;;;;;;29.17;17.33;;;8.70;99.90;;;;;;4970569;28;20141;-80
2021/10/28 05:59:32;;;;;;;27.08;17.08;;;8.70;99.90;;;;;;4971161;28;20046;-80
2021/10/28 06:01:58;;;;;;;26.38;16.02;;;8.70;99.90;;;;;;4969443;28;20154;-80
2021/10/28 06:04:23;;;;;;;27.23;16.45;;;8.60;99.90;;;;;;4968793;28;20046;-81
2021/10/28 06:06:49;;;;;;;31.10;15.73;;;8.70;99.90;;;;;;4970925;28;20488;-81
2021/10/28 06:09:15;;;;;;;22.88;16.83;;;8.60;99.90;;;;;;4962716;28;20174;-80
2021/10/28 06:11:40;;;;;;;27.63;16.27;;;8.60;99.90;;;;;;4956347;28;20042;-81
2021/10/28 06:14:06;;;;;;;27.70;15.48;;;8.50;99.90;;;;;;4959565;28;20046;-81
2021/10/28 06:16:34;;;;;;;25.77;15.82;;;8.60;99.90;;;;;;4968799;28;20089;-81
2021/10/28 06:19:02;;;;;;;29.33;15.77;;;8.60;99.90;;;;;;4970038;28;20153;-81
2021/10/28 06:21:28;;;;;;;27.38;16.10;;;8.60;99.90;;;;;;4971681;28;20051;-81
2021/10/28 06:23:53;;;;;;;29.20;15.45;;;8.60;99.90;;;;;;4970481;28;20057;-80
2021/10/28 06:26:19;;;;;;;24.35;14.88;;;8.50;99.90;;;;;;4967707;28;20050;-80
2021/10/28 06:28:45;;;;;;;26.73;15.88;;;8.50;99.90;;;;;;4965389;28;20053;-80
2021/10/28 06:31:13;;;;;;;27.02;15.82;;;8.50;99.90;;;;;;4955502;28;20050;-79
2021/10/28 06:33:47;;;;;;;24.30;15.52;;;8.50;99.90;;;;;;4972247;28;20117;-80
2021/10/28 06:36:14;;;;;;;26.02;16.15;;;8.50;99.90;;;;;;4975380;28;20454;-80
2021/10/28 06:38:41;;;;;;;25.63;13.70;;;8.50;99.90;;;;;;4974181;28;20113;-80
2021/10/28 06:41:06;;;;;;;27.08;16.15;;;8.50;99.90;;;;;;4975174;28;20042;-79
2021/10/28 06:43:32;;;;;;;26.23;15.88;;;8.70;99.90;;;;;;4972759;28;20049;-80
2021/10/28 06:45:59;;;;;;;25.90;16.00;;;8.50;99.90;;;;;;4976160;28;20057;-80
2021/10/28 06:48:25;;;;;;;29.08;17.35;;;8.50;99.90;;;;;;4961010;28;20498;-81
2021/10/28 06:50:56;;;;;;;29.02;16.85;;;8.50;99.90;;;;;;4978830;28;20045;-81
2021/10/28 06:53:24;;;;;;;26.73;16.38;;;8.50;99.90;;;;;;4978109;28;20090;-81
2021/10/28 06:56:10;;;;;;;32.92;15.65;;;8.50;99.90;;;;;;4969970;28;20113;-81
2021/10/28 07:04:04;;;;;;;29.98;15.90;;;8.60;99.90;;;;;;4977542;28;20053;-81
2021/10/28 07:06:33;;;;;;;30.55;17.95;;;8.60;99.90;;;;;;4978395;28;20173;-81
2021/10/28 07:11:47;;;;;;;30.90;17.42;;;8.60;99.90;;;;;;4977785;28;20504;-81
2021/10/28 07:14:13;;;;;;;29.05;17.08;;;8.60;99.90;;;;;;4976816;28;20049;-81
2021/10/28 07:17:05;;;;;;;32.58;17.30;;;8.70;99.90;;;;;;4977336;28;20050;-81
2021/10/28 07:20:10;;;;;;;29.65;18.23;;;8.70;99.90;;;;;;4976767;28;20476;-80
2021/10/28 07:25:22;;;;;;;25.30;16.63;;;8.70;99.90;;;;;;4978582;28;20397;-79
2021/10/28 07:36:20;;;;;;;29.33;17.73;;;8.80;99.90;;;;;;4989069;28;20046;-79
2021/10/28 08:05:48;;;;;;;;;;;9.40;99.90;;;;;;4986650;28;20316;-80
2021/10/28 08:18:56;;;;;;;26.33;17.52;;;9.60;99.90;;;;;;4973196;28;20046;-80
2021/10/28 08:31:49;;;;;;;31.25;16.92;;;9.80;99.90;;;;;;4969904;28;20451;-80
2021/10/28 08:34:15;;;;;;;27.42;17.30;;;9.90;99.90;;;;;;4969590;28;20077;-80
2021/10/28 08:36:45;;;;;;;26.05;16.83;;;9.90;99.90;;;;;;4968247;28;20042;-80
2021/10/28 08:39:11;;;;;;;31.77;16.52;;;10.00;99.90;;;;;;4968145;28;20058;-81
2021/10/28 08:41:38;;;;;;;24.65;16.27;;;10.00;99.90;;;;;;4971008;28;20050;-80
2021/10/28 08:44:05;;;;;;;28.15;16.20;;;10.20;99.90;;;;;;4970065;28;20062;-80
2021/10/28 08:46:31;;;;;;;29.42;16.15;;;10.20;99.90;;;;;;4973829;28;20030;-80
2021/10/28 08:49:03;;;;;;;25.10;15.95;;;10.20;99.90;;;;;;4968840;28;20077;-80
2021/10/28 08:51:52;;;;;;;24.02;15.27;;;10.30;99.90;;;;;;4955633;28;20084;-81
2021/10/28 08:54:52;;;;;;;24.42;15.38;;;10.30;99.90;;;;;;4973908;28;20481;-79
2021/10/28 09:26:31;;;;;;;23.75;13.82;;;11.30;99.90;;;;;;4963785;28;20030;-81
2021/10/28 09:29:07;;;;;;;22.55;12.93;;;11.30;99.90;;;;;;4957533;28;20413;-80
2021/10/28 09:31:52;;;;;;;21.98;14.25;;;11.30;99.90;;;;;;4970640;28;20076;-82
2021/10/28 09:51:02;;;;;;;24.40;13.00;;;12.20;99.90;;;;;;4975387;28;20050;-82
2021/10/28 09:53:47;;;;;;;23.70;12.57;;;12.30;99.90;;;;;;4973852;28;20089;-82
2021/10/28 09:59:59;;;;;;;19.70;12.52;;;12.60;99.90;;;;;;4975758;28;20081;-81
2021/10/28 10:02:55;;;;;;;17.80;11.52;;;12.70;99.90;;;;;;4992811;28;20506;-81
2021/10/28 10:07:51;;;;;;;18.73;11.20;;;12.90;99.90;;;;;;4971047;28;20059;-81
2021/10/28 10:10:19;;;;;;;17.92;10.93;;;13.00;99.90;;;;;;4972631;28;20177;-79
2021/10/28 10:12:46;;;;;;;18.95;11.05;;;13.10;99.90;;;;;;4960937;28;20061;-81
2021/10/28 10:15:14;;;;;;;17.83;10.57;;;13.20;99.90;;;;;;4969287;28;20191;-85
2021/10/28 10:17:41;;;;;;;15.30;10.38;;;13.30;99.90;;;;;;4970634;28;20054;-81
2021/10/28 10:20:12;;;;;;;14.85;10.10;;;13.40;99.90;;;;;;4952539;28;20530;-80
2021/10/28 10:25:33;;;;;;;19.50;10.13;;;13.70;99.90;;;;;;4972123;28;20450;-80
2021/10/28 12:46:55;;;;;;;6.35;4.25;;;18.20;99.90;;;;;;4887583;29;20044;-78
2021/10/28 13:03:39;;;;;;;6.18;4.25;;;18.40;99.90;;;;;;4915227;29;20047;-80
2021/10/28 14:23:02;;;;;;;6.63;3.47;;;18.30;99.90;;;;;;4945473;29;20151;-79
2021/10/28 14:25:32;;;;;;;5.90;3.67;;;18.10;99.90;;;;;;4929741;29;20063;-82
2021/10/28 14:39:01;;;;;;;7.43;4.28;;;18.00;99.90;;;;;;4950929;28;20069;-80
2021/10/28 15:41:49;;;;;;;10.57;6.15;;;15.60;99.90;;;;;;4879057;29;20128;-78
2021/10/28 15:50:45;;;;;;;10.45;6.20;;;15.00;99.90;;;;;;4899762;29;20087;-83
2021/10/28 16:22:30;;;;;;;14.60;7.57;;;13.60;99.90;;;;;;4971161;28;20057;-84
2021/10/28 16:24:55;;;;;;;12.63;7.22;;;13.50;99.90;;;;;;4968317;28;20047;-81
2021/10/28 16:27:21;;;;;;;13.95;7.13;;;13.50;99.90;;;;;;4978217;28;20085;-80
2021/10/28 16:29:47;;;;;;;12.65;7.22;;;13.40;99.90;;;;;;4993345;28;20137;-80
2021/10/28 16:32:14;;;;;;;14.20;8.23;;;13.30;99.90;;;;;;4977894;28;20418;-81
2021/10/28 16:34:40;;;;;;;13.18;7.53;;;13.30;99.90;;;;;;4976753;28;20070;-81
2021/10/28 16:37:06;;;;;;;14.35;7.60;;;13.10;99.90;;;;;;4956650;28;20512;-82
2021/10/28 16:39:52;;;;;;;14.13;7.95;;;13.20;99.90;;;;;;4970370;28;20150;-81
2021/10/28 16:42:18;;;;;;;12.57;8.20;;;13.10;99.90;;;;;;4966710;28;20525;-81
2021/10/28 16:44:45;;;;;;;14.75;7.93;;;13.10;99.90;;;;;;4974876;28;20050;-82
2021/10/28 16:47:12;;;;;;;12.77;7.20;;;12.90;99.90;;;;;;4962936;28;20054;-81
2021/10/28 16:49:38;;;;;;;11.15;7.03;;;13.00;99.90;;;;;;4986029;28;20078;-80
2021/10/28 16:52:04;;;;;;;11.13;7.68;;;12.90;99.90;;;;;;4985886;28;20366;-81
2021/10/28 16:54:32;;;;;;;11.85;8.18;;;12.90;99.90;;;;;;4987208;28;20038;-81
2021/10/28 16:56:58;;;;;;;12.68;7.43;;;12.80;99.90;;;;;;5006811;28;20041;-80
2021/10/28 16:59:25;;;;;;;22.98;8.38;;;12.80;99.90;;;;;;4993740;28;20053;-80
2021/10/28 17:01:53;;;;;;;11.60;7.60;;;12.70;99.90;;;;;;4994283;28;20077;-81
2021/10/28 17:04:19;;;;;;;14.05;7.68;;;12.70;99.90;;;;;;4979296;28;20097;-81
2021/10/28 17:06:44;;;;;;;11.73;7.63;;;12.60;99.90;;;;;;4975942;28;20050;-81
2021/10/28 17:09:10;;;;;;;14.60;7.75;;;12.60;99.90;;;;;;4974927;28;20046;-81
2021/10/28 17:11:37;;;;;;;17.60;7.78;;;12.50;99.90;;;;;;4975585;28;20080;-81
2021/10/28 17:14:05;;;;;;;12.73;7.78;;;12.50;99.90;;;;;;4983153;28;20057;-81
2021/10/28 17:16:33;;;;;;;14.43;8.15;;;12.40;99.90;;;;;;4994703;28;20049;-81
2021/10/28 17:18:59;;;;;;;13.68;8.05;;;12.30;99.90;;;;;;4995293;28;20041;-81
2021/10/28 17:21:25;;;;;;;13.32;8.63;;;12.30;99.90;;;;;;4995145;28;20058;-80
2021/10/28 17:24:00;;;;;;;14.00;8.45;;;12.30;99.90;;;;;;4984742;28;20385;-80
2021/10/28 17:26:27;;;;;;;13.90;7.70;;;12.30;99.90;;;;;;4975199;28;20042;-79
2021/10/28 17:28:58;;;;;;;15.55;7.97;;;12.20;99.90;;;;;;4975537;28;20204;-80
2021/10/28 17:31:24;;;;;;;13.77;8.02;;;12.30;99.90;;;;;;4960609;28;20058;-82
2021/10/28 17:33:50;;;;;;;12.68;8.13;;;12.10;99.90;;;;;;4993366;28;20045;-80
2021/10/28 17:36:15;;;;;;;13.55;8.60;;;12.10;99.90;;;;;;4960712;28;20474;-80
2021/10/28 17:39:00;;;;;;;12.10;9.00;;;12.10;99.90;;;;;;4967271;28;20058;-80
2021/10/28 17:41:26;;;;;;;16.58;9.18;;;12.10;99.90;;;;;;4940685;28;20066;-81
2021/10/28 17:43:55;;;;;;;15.27;8.65;;;12.00;99.90;;;;;;4972446;28;20046;-80
2021/10/28 17:46:24;;;;;;;13.02;8.40;;;12.00;99.90;;;;;;4953580;28;20054;-80
2021/10/28 17:48:51;;;;;;;11.40;8.65;;;12.00;99.90;;;;;;4975338;28;20056;-80
2021/10/28 17:51:17;;;;;;;14.82;8.50;;;11.90;99.90;;;;;;4993291;28;20053;-80
2021/10/28 17:53:44;;;;;;;14.20;9.18;;;11.90;99.90;;;;;;4974322;28;20133;-83
2021/10/28 17:56:15;;;;;;;16.52;8.75;;;11.80;99.90;;;;;;4975202;28;20073;-80
2021/10/28 17:58:41;;;;;;;12.45;9.00;;;11.90;99.90;;;;;;4973791;28;20129;-81
2021/10/28 18:01:08;;;;;;;15.38;9.00;;;11.80;99.90;;;;;;4974536;28;20528;-81
2021/10/28 18:03:34;;;;;;;19.85;9.25;;;11.80;99.90;;;;;;4979908;28;20047;-81
2021/10/28 18:06:00;;;;;;;13.30;8.85;;;11.70;99.90;;;;;;4974209;28;20042;-82
2021/10/28 18:08:27;;;;;;;13.55;8.82;;;11.80;99.90;;;;;;4974556;28;20378;-82
2021/10/28 18:10:53;;;;;;;13.50;9.10;;;11.70;99.90;;;;;;4974771;28;20077;-80
2021/10/28 18:13:19;;;;;;;16.02;9.95;;;11.70;99.90;;;;;;4974477;28;20457;-82
2021/10/28 18:15:46;;;;;;;15.88;9.25;;;11.70;99.90;;;;;;4991741;28;20050;-81
2021/10/28 18:18:12;;;;;;;16.65;9.00;;;11.70;99.90;;;;;;4973073;28;20138;-81
2021/10/28 18:20:39;;;;;;;19.25;9.07;;;11.70;99.90;;;;;;4974904;28;20502;-80
2021/10/28 18:23:05;;;;;;;15.27;9.73;;;11.70;99.90;;;;;;4954803;28;20113;-80
2021/10/28 18:25:31;;;;;;;19.10;8.63;;;11.70;99.90;;;;;;4968476;28;20070;-82
2021/10/28 18:28:00;;;;;;;17.65;9.00;;;11.80;99.90;;;;;;4963856;28;20074;-86
2021/10/28 18:30:28;;;;;;;13.32;8.98;;;11.90;99.90;;;;;;4983069;28;20142;-79
2021/10/28 18:32:55;;;;;;;19.55;9.88;;;11.90;99.90;;;;;;4975812;28;20189;-79
2021/10/28 18:35:21;;;;;;;13.32;9.00;;;11.70;99.90;;;;;;4978998;28;20043;-79
2021/10/28 18:37:48;;;;;;;17.90;9.50;;;11.80;99.90;;;;;;4974087;28;20458;-80
2021/10/28 18:40:17;;;;;;;17.38;8.95;;;11.70;99.90;;;;;;4975507;28;20062;-79
2021/10/28 18:42:44;;;;;;;20.75;10.23;;;11.80;99.90;;;;;;4972851;28;20041;-78
2021/10/28 18:45:10;;;;;;;16.48;9.23;;;11.70;99.90;;;;;;4974381;28;20034;-79
2021/10/28 18:47:36;;;;;;;13.50;9.07;;;11.70;99.90;;;;;;4975715;28;20374;-78
2021/10/28 18:50:04;;;;;;;15.52;9.80;;;11.70;99.90;;;;;;4973202;28;20052;-80
2021/10/28 18:52:30;;;;;;;20.55;9.63;;;11.60;99.90;;;;;;4956903;28;20058;-79
2021/10/28 18:54:56;;;;;;;17.48;9.95;;;11.60;99.90;;;;;;4976715;28;20053;-78
2021/10/28 18:57:22;;;;;;;17.70;9.75;;;11.50;99.90;;;;;;4964829;28;20042;-77
2021/10/28 18:59:48;;;;;;;15.98;10.25;;;11.60;99.90;;;;;;4963035;28;20347;-77
2021/10/28 19:02:15;;;;;;;23.17;10.23;;;11.50;99.90;;;;;;4958806;28;20066;-79
2021/10/28 19:04:41;;;;;;;16.50;10.20;;;11.50;99.90;;;;;;4958184;28;20042;-80
2021/10/28 19:07:08;;;;;;;18.67;10.30;;;11.50;99.90;;;;;;4975012;28;20061;-78
2021/10/28 19:09:34;;;;;;;18.92;10.25;;;11.50;99.90;;;;;;4988983;28;20120;-78
2021/10/28 19:12:00;;;;;;;20.85;10.32;;;11.50;99.90;;;;;;4960700;28;20139;-78
2021/10/28 19:14:27;;;;;;;18.90;10.70;;;11.40;99.90;;;;;;4972790;28;20531;-80
2021/10/28 19:16:53;;;;;;;15.82;9.90;;;11.30;99.90;;;;;;4974291;28;20199;-77
2021/10/28 19:19:19;;;;;;;18.60;9.68;;;11.30;99.90;;;;;;4985252;28;21315;-80
2021/10/28 19:21:45;;;;;;;16.55;9.98;;;11.20;99.90;;;;;;4964685;28;20043;-79
2021/10/28 19:24:11;;;;;;;20.83;10.25;;;11.20;99.90;;;;;;4969410;28;20050;-78
2021/10/28 19:26:38;;;;;;;17.30;10.10;;;11.10;99.90;;;;;;4981235;28;20042;-78
2021/10/28 19:29:08;;;;;;;15.73;10.45;;;11.00;99.90;;;;;;4997708;28;20109;-82
2021/10/28 19:31:44;;;;;;;20.70;9.90;;;11.10;99.90;;;;;;4972170;28;20484;-80
2021/10/28 19:34:28;;;;;;;16.30;10.10;;;11.00;99.90;;;;;;4977562;28;20045;-84
2021/10/28 19:37:43;;;;;;;14.85;9.88;;;10.80;99.90;;;;;;4927932;29;20408;-81
2021/10/28 19:45:07;;;;;;;18.70;10.52;;;11.00;99.90;;;;;;4920694;29;20423;-78
2021/10/28 19:48:30;;;;;;;19.73;10.35;;;10.90;99.90;;;;;;4927508;29;20083;-80
2021/10/28 19:50:56;;;;;;;14.55;10.50;;;10.90;99.90;;;;;;4897874;29;20052;-80
2021/10/28 19:53:22;;;;;;;18.17;10.40;;;10.90;99.90;;;;;;4896001;29;22089;-80
2021/10/28 19:55:48;;;;;;;14.77;10.90;;;10.80;99.90;;;;;;4916278;29;20770;-78
2021/10/28 19:58:23;;;;;;;18.15;10.82;;;10.80;99.90;;;;;;4913112;29;20103;-78
2021/10/28 20:00:59;;;;;;;16.75;11.50;;;10.80;99.90;;;;;;4916745;29;20469;-78
2021/10/28 20:03:39;;;;;;;22.13;12.35;;;10.80;99.90;;;;;;4896914;29;20042;-79
2021/10/28 20:20:52;;;;;;;22.70;13.13;;;10.70;99.90;;;;;;4910162;29;20107;-82
2021/10/28 20:24:38;;;;;;;;;;;;;;;;;;;;;
2021/10/28 20:27:36;;;;;;;20.55;13.07;;;10.70;99.90;;;;;;4897391;29;20151;-81
2021/10/28 20:37:06;;;;;;;17.35;13.75;;;10.90;99.90;;;;;;4844564;29;20049;-82
2021/10/28 20:43:59;;;;;;;18.70;13.55;;;10.60;99.90;;;;;;4859180;29;20128;-80
2021/10/28 20:47:28;;;;;;;23.35;14.27;;;10.60;99.90;;;;;;4789609;29;20164;-81
2021/10/28 20:50:11;;;;;;;24.33;14.02;;;10.40;99.90;;;;;;4748352;29;20138;-81
2021/10/28 20:52:53;;;;;;;18.98;13.35;;;10.50;99.90;;;;;;4767130;29;20158;-81
2021/10/28 21:02:00;;;;;;;16.73;10.03;;;10.60;99.90;;;;;;4815212;29;20056;-79
2021/10/28 21:12:56;;;;;;;23.48;14.45;;;10.70;99.90;;;;;;4970272;28;20058;-80
2021/10/28 21:15:56;;;;;;;;;;;;;;;;;;;;;
2021/10/28 21:18:58;;;;;;;19.25;14.18;;;10.70;99.90;;;;;;4942515;28;20051;-82
2021/10/28 21:21:38;;;;;;;;;;;10.50;99.90;;;;;;4907964;29;20425;-81
2021/10/28 21:28:34;;;;;;;19.55;14.38;;;10.70;99.90;;;;;;4811085;29;20050;-80
2021/10/28 21:31:37;;;;;;;24.73;15.68;;;10.60;99.90;;;;;;4817346;29;20609;-80
2021/10/28 21:34:55;;;;;;;21.35;15.35;;;10.60;99.90;;;;;;4807945;29;20058;-80
2021/10/28 21:38:08;;;;;;;27.17;14.80;;;11.00;99.90;;;;;;4779659;29;20051;-80
2021/10/28 21:40:52;;;;;;;21.33;15.27;;;10.40;99.90;;;;;;4730069;30;20060;-80
2021/10/28 21:44:22;;;;;;;20.65;14.70;;;11.10;99.90;;;;;;4734011;30;20052;-80
2021/10/28 21:47:48;;;;;;;31.38;15.50;;;10.40;99.90;;;;;;4737759;30;20088;-81
2021/10/28 21:50:31;;;;;;;23.25;15.80;;;10.40;99.90;;;;;;4742855;30;20139;-82
2021/10/28 21:57:00;;;;;;;25.13;15.80;;;10.50;99.90;;;;;;4778192;29;20054;-81
2021/10/28 22:00:35;;;;;;;22.15;14.38;;;10.40;99.90;;;;;;4794127;29;20061;-81
2021/10/28 22:25:31;;;;;;;24.02;16.25;;;10.10;99.90;;;;;;4779944;29;20057;-82
2021/10/28 22:27:57;;;;;;;33.03;17.63;;;10.10;99.90;;;;;;4765557;29;20051;-82
2021/10/28 22:30:23;;;;;;;27.95;17.65;;;10.10;99.90;;;;;;4766697;29;20535;-81
2021/10/28 22:32:49;;;;;;;25.52;16.48;;;10.10;99.90;;;;;;4765967;29;20071;-81
2021/10/28 22:35:35;;;;;;;27.58;17.77;;;10.00;99.90;;;;;;4782284;29;20051;-82
2021/10/28 22:38:04;;;;;;;31.13;18.52;;;10.00;99.90;;;;;;4801806;29;20069;-80
2021/10/28 22:40:35;;;;;;;23.45;17.77;;;9.90;99.90;;;;;;4855665;29;20058;-81
2021/10/28 22:43:12;;;;;;;24.63;16.77;;;10.00;99.90;;;;;;4854824;29;20069;-81
2021/10/28 22:45:40;;;;;;;32.92;18.30;;;9.90;99.90;;;;;;4891274;28;20050;-81
2021/10/28 22:48:07;;;;;;;26.88;17.20;;;10.00;99.90;;;;;;4931688;29;20082;-81
2021/10/28 22:50:33;;;;;;;27.88;18.27;;;9.90;99.90;;;;;;4929599;29;20043;-81
2021/10/28 22:53:02;;;;;;;24.88;17.75;;;9.80;99.90;;;;;;4928538;29;20167;-82
2021/10/28 22:55:48;;;;;;;28.05;17.77;;;9.80;99.90;;;;;;4928474;29;20126;-81
2021/10/28 22:58:37;;;;;;;31.65;18.35;;;9.80;99.90;;;;;;4928595;29;20042;-80
2021/10/28 23:01:13;;;;;;;27.25;18.33;;;9.80;99.90;;;;;;4930714;29;20179;-80
2021/10/28 23:14:36;;;;;;;27.90;19.20;;;9.80;99.90;;;;;;4940244;28;20043;-82
2021/10/28 23:22:38;;;;;;;31.05;19.42;;;9.80;99.90;;;;;;4939341;29;20134;-81
2021/10/28 23:25:04;;;;;;;28.45;19.48;;;9.70;99.90;;;;;;4936462;28;20126;-81
2021/10/28 23:27:30;;;;;;;33.65;20.05;;;9.70;99.90;;;;;;4940247;28;20094;-81
2021/10/28 23:29:55;;;;;;;28.10;19.10;;;9.70;99.90;;;;;;4940194;28;20042;-81
2021/10/28 23:32:21;;;;;;;32.75;19.80;;;9.70;99.90;;;;;;4937308;28;20043;-82
2021/10/28 23:34:47;;;;;;;29.30;19.33;;;9.60;99.90;;;;;;4936987;29;20079;-79
2021/10/28 23:37:12;;;;;;;30.05;19.90;;;9.60;99.90;;;;;;4937266;29;20047;-81
2021/10/28 23:39:38;;;;;;;33.35;20.38;;;9.60;99.90;;;;;;4937164;29;20047;-81
2021/10/28 23:42:05;;;;;;;31.15;20.63;;;9.60;99.90;;;;;;4936995;28;20031;-81